Time;durP1;ratioP1;P1;durP2;ratioP2;P2;SDS_P1;SDS_P2;PMS_P1;PMS_P2;Temp;Humidity;BMP_temperature;BMP_pressure;BME280_temperature;BME280_humidity;BME280_pressure;Samples;Min_cycle;Max_cycle;Signal;HPM_P1;HPM_P2
2023/03/17 00:00:26;;;;;;;38.53;25.33;;;;;;;;;;754947;187;623796;-65
2023/03/17 00:02:52;;;;;;;35.60;24.03;;;;;;;;;;751532;187;666696;-64
2023/03/17 00:05:18;;;;;;;33.03;22.27;;;;;;;;;;749417;187;678533;-67
2023/03/17 00:07:45;;;;;;;42.13;25.88;;;;;;;;;;752275;186;646449;-66
2023/03/17 00:10:13;;;;;;;36.60;24.87;;;;;;;;;;762816;182;661315;-66
2023/03/17 00:12:40;;;;;;;43.23;25.57;;;;;;;;;;753321;184;625178;-64
2023/03/17 00:15:05;;;;;;;42.70;26.30;;;;;;;;;;752263;187;634670;-67
2023/03/17 00:17:31;;;;;;;34.83;24.67;;;;;;;;;;756247;187;641992;-65
2023/03/17 00:19:57;;;;;;;38.23;23.93;;;;;;;;;;753085;187;621243;-65
2023/03/17 00:22:23;;;;;;;37.73;24.67;;;;;;;;;;747628;187;660840;-65
2023/03/17 00:24:49;;;;;;;42.30;24.60;;;;;;;;;;754010;187;627806;-65
2023/03/17 00:27:14;;;;;;;32.70;23.43;;;;;;;;;;750659;187;628802;-65
2023/03/17 00:29:40;;;;;;;41.23;24.07;;;;;;;;;;750124;186;634177;-64
2023/03/17 00:32:11;;;;;;;42.87;26.00;;;;;;;;;;751605;185;632499;-66
2023/03/17 00:34:37;;;;;;;32.77;23.10;;;;;;;;;;760422;183;623126;-66
2023/03/17 00:37:03;;;;;;;42.57;23.90;;;;;;;;;;754923;185;635232;-66
2023/03/17 00:39:29;;;;;;;43.03;26.00;;;;;;;;;;752378;186;652651;-67
2023/03/17 00:41:54;;;;;;;41.63;26.67;;;;;;;;;;755632;186;631486;-64
2023/03/17 00:44:20;;;;;;;37.40;25.50;;;;;;;;;;751092;187;622744;-64
2023/03/17 00:46:46;;;;;;;39.37;24.13;;;;;;;;;;755740;186;634199;-65
2023/03/17 00:49:15;;;;;;;34.45;23.10;;;;;;;;;;750708;186;629303;-65
2023/03/17 00:51:41;;;;;;;36.00;21.60;;;;;;;;;;752236;187;625021;-64
2023/03/17 00:54:07;;;;;;;38.20;23.90;;;;;;;;;;743731;187;635738;-64
2023/03/17 00:56:33;;;;;;;36.30;25.23;;;;;;;;;;750347;187;628111;-64
2023/03/17 00:58:58;;;;;;;34.80;24.20;;;;;;;;;;756929;186;661155;-67
2023/03/17 01:01:24;;;;;;;44.07;24.10;;;;;;;;;;749129;185;626175;-66
2023/03/17 01:03:51;;;;;;;35.77;22.60;;;;;;;;;;752752;187;632895;-67
2023/03/17 01:06:16;;;;;;;30.87;20.77;;;;;;;;;;756503;187;643096;-66
2023/03/17 01:08:43;;;;;;;39.10;24.30;;;;;;;;;;753057;187;623162;-65
2023/03/17 01:11:09;;;;;;;34.40;21.63;;;;;;;;;;754945;186;625843;-67
2023/03/17 01:13:35;;;;;;;32.77;22.17;;;;;;;;;;751029;187;633916;-66
2023/03/17 01:16:01;;;;;;;32.07;21.10;;;;;;;;;;756512;187;629628;-65
2023/03/17 01:18:26;;;;;;;33.97;23.33;;;;;;;;;;750787;187;635466;-65
2023/03/17 01:20:52;;;;;;;43.33;21.13;;;;;;;;;;751223;187;667569;-68
2023/03/17 01:23:18;;;;;;;28.50;21.03;;;;;;;;;;755667;187;627403;-67
2023/03/17 01:25:44;;;;;;;33.23;22.00;;;;;;;;;;752825;186;651383;-66
2023/03/17 01:28:10;;;;;;;28.47;19.80;;;;;;;;;;753996;184;625281;-66
2023/03/17 01:30:37;;;;;;;33.03;20.57;;;;;;;;;;755283;187;637600;-67
2023/03/17 01:33:02;;;;;;;35.33;22.17;;;;;;;;;;751858;183;627210;-66
2023/03/17 01:35:29;;;;;;;33.17;22.60;;;;;;;;;;750606;187;634024;-64
2023/03/17 01:37:56;;;;;;;30.47;21.30;;;;;;;;;;752878;187;622597;-64
2023/03/17 01:40:21;;;;;;;37.97;20.80;;;;;;;;;;753102;187;639856;-64
2023/03/17 01:42:47;;;;;;;27.77;19.53;;;;;;;;;;751230;186;639267;-66
2023/03/17 01:45:19;;;;;;;27.70;19.50;;;;;;;;;;754222;186;633303;-65
2023/03/17 01:47:45;;;;;;;31.33;18.77;;;;;;;;;;754940;186;630272;-64
2023/03/17 01:50:11;;;;;;;31.73;20.27;;;;;;;;;;749530;186;731135;-65
2023/03/17 01:52:36;;;;;;;33.93;20.70;;;;;;;;;;751310;187;650999;-65
2023/03/17 01:55:03;;;;;;;31.70;20.67;;;;;;;;;;749964;186;630435;-65
2023/03/17 01:57:29;;;;;;;27.00;18.00;;;;;;;;;;758639;186;630018;-65
2023/03/17 01:59:55;;;;;;;27.73;20.43;;;;;;;;;;751859;186;630586;-67
2023/03/17 02:02:23;;;;;;;27.03;17.57;;;;;;;;;;753515;186;629416;-67
2023/03/17 02:04:49;;;;;;;23.53;16.97;;;;;;;;;;755258;187;621380;-67
2023/03/17 02:07:14;;;;;;;27.73;15.90;;;;;;;;;;748215;187;627422;-67
2023/03/17 02:09:40;;;;;;;25.90;16.93;;;;;;;;;;752163;186;616963;-68
2023/03/17 02:12:06;;;;;;;23.67;15.73;;;;;;;;;;751395;186;635496;-65
2023/03/17 02:14:33;;;;;;;25.80;15.70;;;;;;;;;;757241;183;631314;-67
2023/03/17 02:16:58;;;;;;;25.77;16.40;;;;;;;;;;750799;186;623037;-65
2023/03/17 02:19:24;;;;;;;25.70;15.63;;;;;;;;;;751655;185;627791;-65
2023/03/17 02:21:50;;;;;;;22.17;15.47;;;;;;;;;;755709;187;627828;-67
2023/03/17 02:24:18;;;;;;;31.63;17.60;;;;;;;;;;751456;187;621483;-64
2023/03/17 02:26:45;;;;;;;23.40;15.70;;;;;;;;;;750087;186;641960;-64
2023/03/17 02:29:10;;;;;;;27.90;17.30;;;;;;;;;;754464;187;658438;-65
2023/03/17 02:31:36;;;;;;;30.70;17.50;;;;;;;;;;754914;187;649071;-64
2023/03/17 02:34:02;;;;;;;23.87;16.67;;;;;;;;;;751385;187;717506;-67
2023/03/17 02:36:27;;;;;;;26.17;16.73;;;;;;;;;;749387;187;620371;-66
2023/03/17 02:38:53;;;;;;;27.40;17.63;;;;;;;;;;752593;185;621194;-65
2023/03/17 02:41:19;;;;;;;32.57;17.20;;;;;;;;;;747896;187;645820;-66
2023/03/17 02:43:45;;;;;;;24.70;16.73;;;;;;;;;;750873;187;646593;-66
2023/03/17 02:46:11;;;;;;;32.87;19.67;;;;;;;;;;756703;187;624759;-66
2023/03/17 02:48:37;;;;;;;25.50;17.00;;;;;;;;;;752960;187;627399;-65
2023/03/17 02:51:03;;;;;;;22.77;15.40;;;;;;;;;;750133;186;639037;-65
2023/03/17 02:53:29;;;;;;;30.67;16.77;;;;;;;;;;754844;187;617453;-67
2023/03/17 02:55:55;;;;;;;27.93;17.40;;;;;;;;;;749116;185;618876;-66
2023/03/17 02:58:20;;;;;;;31.63;19.17;;;;;;;;;;752552;186;626995;-66
2023/03/17 03:00:47;;;;;;;23.83;18.02;;;;;;;;;;753256;186;627578;-67
2023/03/17 03:03:12;;;;;;;28.70;18.90;;;;;;;;;;761437;183;625220;-66
2023/03/17 03:05:38;;;;;;;28.00;16.20;;;;;;;;;;751686;186;625986;-68
2023/03/17 03:08:04;;;;;;;27.50;17.87;;;;;;;;;;755679;186;620132;-67
2023/03/17 03:10:31;;;;;;;25.07;17.90;;;;;;;;;;756180;186;636095;-65
2023/03/17 03:12:56;;;;;;;29.10;18.13;;;;;;;;;;754347;186;627482;-65
2023/03/17 03:15:22;;;;;;;24.07;18.00;;;;;;;;;;751344;186;627937;-65
2023/03/17 03:17:47;;;;;;;24.00;16.80;;;;;;;;;;755806;187;618502;-65
2023/03/17 03:20:13;;;;;;;24.43;16.17;;;;;;;;;;752147;185;634265;-65
2023/03/17 03:22:39;;;;;;;25.60;15.40;;;;;;;;;;749228;186;634859;-66
2023/03/17 03:25:06;;;;;;;26.77;17.70;;;;;;;;;;754501;187;636920;-67
2023/03/17 03:27:31;;;;;;;23.30;17.37;;;;;;;;;;754844;183;627016;-65
2023/03/17 03:29:57;;;;;;;30.67;17.30;;;;;;;;;;753007;186;632074;-67
2023/03/17 03:32:23;;;;;;;29.30;17.77;;;;;;;;;;751583;187;614660;-67
2023/03/17 03:34:49;;;;;;;21.03;15.60;;;;;;;;;;755589;187;702438;-65
2023/03/17 03:37:14;;;;;;;32.57;17.63;;;;;;;;;;752851;187;652979;-65
2023/03/17 03:39:41;;;;;;;26.03;17.33;;;;;;;;;;752531;186;628859;-65
2023/03/17 03:42:06;;;;;;;27.70;16.67;;;;;;;;;;754465;187;633024;-65
2023/03/17 03:44:32;;;;;;;30.23;15.97;;;;;;;;;;750799;187;619195;-65
2023/03/17 03:46:58;;;;;;;26.17;17.23;;;;;;;;;;750772;187;635239;-65
2023/03/17 03:49:24;;;;;;;21.27;17.37;;;;;;;;;;753443;187;622024;-65
2023/03/17 03:51:50;;;;;;;26.00;16.80;;;;;;;;;;750741;187;628963;-66
2023/03/17 03:54:15;;;;;;;30.07;19.30;;;;;;;;;;753136;185;621055;-66
2023/03/17 03:56:41;;;;;;;25.80;18.20;;;;;;;;;;749638;187;642540;-67
2023/03/17 03:59:08;;;;;;;32.30;20.20;;;;;;;;;;755224;187;699870;-65
2023/03/17 04:01:33;;;;;;;33.57;20.30;;;;;;;;;;751954;187;628173;-67
2023/03/17 04:03:59;;;;;;;44.60;20.27;;;;;;;;;;748359;186;633156;-68
2023/03/17 04:06:25;;;;;;;33.97;22.87;;;;;;;;;;754792;184;623355;-65
2023/03/17 04:08:51;;;;;;;39.63;23.67;;;;;;;;;;753485;186;634795;-68
2023/03/17 04:11:16;;;;;;;37.37;21.87;;;;;;;;;;751948;186;635666;-65
2023/03/17 04:13:42;;;;;;;40.40;22.90;;;;;;;;;;754826;186;628038;-67
2023/03/17 04:16:08;;;;;;;32.33;23.37;;;;;;;;;;752368;186;641220;-66
2023/03/17 04:18:34;;;;;;;32.43;20.57;;;;;;;;;;750948;186;641877;-67
2023/03/17 04:21:00;;;;;;;36.37;23.33;;;;;;;;;;753952;185;671052;-66
2023/03/17 04:23:27;;;;;;;43.33;22.37;;;;;;;;;;749091;186;625576;-65
2023/03/17 04:25:52;;;;;;;30.27;17.47;;;;;;;;;;751234;185;631826;-66
2023/03/17 04:28:18;;;;;;;29.43;20.20;;;;;;;;;;755027;186;621601;-68
2023/03/17 04:30:43;;;;;;;149.30;108.33;;;;;;;;;;756196;186;627807;-67
2023/03/17 04:33:09;;;;;;;33.40;22.27;;;;;;;;;;752081;187;631719;-66
2023/03/17 04:35:35;;;;;;;35.33;23.87;;;;;;;;;;747509;187;626077;-66
2023/03/17 04:38:01;;;;;;;29.80;22.67;;;;;;;;;;754007;187;630190;-67
2023/03/17 04:40:27;;;;;;;26.83;18.80;;;;;;;;;;754485;186;649189;-68
2023/03/17 04:42:53;;;;;;;37.37;24.43;;;;;;;;;;753325;186;633727;-66
2023/03/17 04:45:19;;;;;;;34.80;23.00;;;;;;;;;;752114;187;636216;-66
2023/03/17 04:47:46;;;;;;;49.87;27.40;;;;;;;;;;755445;183;619332;-65
2023/03/17 04:50:11;;;;;;;35.07;23.57;;;;;;;;;;750151;183;626703;-66
2023/03/17 04:52:37;;;;;;;39.97;25.10;;;;;;;;;;750574;187;635176;-67
2023/03/17 04:55:03;;;;;;;38.40;24.97;;;;;;;;;;757161;187;614520;-66
2023/03/17 04:57:29;;;;;;;40.37;26.27;;;;;;;;;;749428;187;630344;-67
2023/03/17 04:59:56;;;;;;;41.80;26.93;;;;;;;;;;750228;187;635316;-65
2023/03/17 05:02:21;;;;;;;36.07;24.60;;;;;;;;;;753623;187;633245;-67
2023/03/17 05:04:46;;;;;;;35.60;24.80;;;;;;;;;;751514;187;635311;-67
2023/03/17 05:07:12;;;;;;;32.20;21.00;;;;;;;;;;751732;187;627651;-66
2023/03/17 05:09:39;;;;;;;31.62;19.80;;;;;;;;;;749583;187;635153;-66
2023/03/17 05:12:05;;;;;;;34.10;22.00;;;;;;;;;;752792;187;633725;-66
2023/03/17 05:14:30;;;;;;;32.10;18.93;;;;;;;;;;747822;187;616533;-66
2023/03/17 05:16:56;;;;;;;44.30;23.47;;;;;;;;;;750158;186;625609;-67
2023/03/17 05:19:22;;;;;;;35.90;22.90;;;;;;;;;;755299;186;642025;-66
2023/03/17 05:21:48;;;;;;;38.27;23.17;;;;;;;;;;751504;186;640619;-66
2023/03/17 05:24:14;;;;;;;59.60;26.20;;;;;;;;;;752440;186;626853;-67
2023/03/17 05:26:40;;;;;;;42.17;24.43;;;;;;;;;;756038;186;614208;-67
2023/03/17 05:29:06;;;;;;;35.03;24.20;;;;;;;;;;752987;186;629855;-66
2023/03/17 05:31:31;;;;;;;38.63;21.90;;;;;;;;;;752425;187;626291;-67
2023/03/17 05:33:57;;;;;;;40.00;22.67;;;;;;;;;;754512;186;713997;-67
2023/03/17 05:36:23;;;;;;;34.23;21.53;;;;;;;;;;751320;186;684926;-67
2023/03/17 05:38:49;;;;;;;39.67;22.70;;;;;;;;;;749520;187;634100;-66
2023/03/17 05:41:15;;;;;;;39.63;23.00;;;;;;;;;;751478;187;641369;-67
2023/03/17 05:43:41;;;;;;;34.93;21.60;;;;;;;;;;753388;186;621347;-67
2023/03/17 05:46:07;;;;;;;36.77;24.30;;;;;;;;;;750629;187;632105;-68
2023/03/17 05:48:32;;;;;;;37.70;22.50;;;;;;;;;;751323;186;635285;-68
2023/03/17 05:50:59;;;;;;;34.70;22.17;;;;;;;;;;756046;186;631546;-69
2023/03/17 05:53:24;;;;;;;38.83;20.87;;;;;;;;;;756196;186;641326;-68
2023/03/17 05:55:51;;;;;;;41.70;23.00;;;;;;;;;;751766;187;648958;-67
2023/03/17 05:58:16;;;;;;;41.70;23.23;;;;;;;;;;756791;187;625732;-67
2023/03/17 06:00:42;;;;;;;36.80;21.90;;;;;;;;;;750278;187;661283;-67
2023/03/17 06:03:08;;;;;;;29.93;20.60;;;;;;;;;;749887;186;632082;-67
2023/03/17 06:05:34;;;;;;;31.13;21.00;;;;;;;;;;752915;187;631983;-66
2023/03/17 06:07:59;;;;;;;31.80;19.57;;;;;;;;;;752746;187;630416;-68
2023/03/17 06:10:25;;;;;;;30.80;20.33;;;;;;;;;;742249;187;775483;-68
2023/03/17 06:12:51;;;;;;;34.97;22.77;;;;;;;;;;750038;187;633753;-69
2023/03/17 06:15:17;;;;;;;33.73;22.07;;;;;;;;;;755315;187;629326;-68
2023/03/17 06:17:43;;;;;;;34.80;22.77;;;;;;;;;;750408;187;636606;-69
2023/03/17 06:20:10;;;;;;;32.30;19.83;;;;;;;;;;749453;187;636684;-65
2023/03/17 06:22:36;;;;;;;34.53;21.33;;;;;;;;;;754929;187;614090;-63
2023/03/17 06:25:01;;;;;;;33.50;21.53;;;;;;;;;;750043;187;633393;-73
2023/03/17 06:27:27;;;;;;;39.70;17.77;;;;;;;;;;750781;186;633602;-63
2023/03/17 06:29:52;;;;;;;31.27;19.60;;;;;;;;;;751974;187;619146;-65
2023/03/17 06:32:18;;;;;;;34.47;18.90;;;;;;;;;;757647;183;623691;-64
2023/03/17 06:34:44;;;;;;;28.50;16.13;;;;;;;;;;753560;186;632508;-65
2023/03/17 06:37:10;;;;;;;37.57;16.47;;;;;;;;;;754264;186;630611;-65
2023/03/17 06:39:36;;;;;;;30.10;18.00;;;;;;;;;;755441;186;631662;-64
2023/03/17 06:42:02;;;;;;;32.83;19.03;;;;;;;;;;750949;186;632188;-65
2023/03/17 06:44:27;;;;;;;30.20;20.73;;;;;;;;;;750810;186;728586;-65
2023/03/17 06:46:53;;;;;;;33.17;19.27;;;;;;;;;;754024;186;700901;-65
2023/03/17 06:49:19;;;;;;;39.73;20.50;;;;;;;;;;750872;187;630905;-70
2023/03/17 06:51:45;;;;;;;35.00;20.57;;;;;;;;;;752262;186;637383;-70
2023/03/17 06:54:11;;;;;;;30.37;19.95;;;;;;;;;;755990;186;646783;-63
2023/03/17 06:56:37;;;;;;;29.90;20.10;;;;;;;;;;750052;187;624462;-70
2023/03/17 06:59:03;;;;;;;53.40;28.80;;;;;;;;;;752211;186;628893;-65
2023/03/17 07:01:30;;;;;;;49.50;28.93;;;;;;;;;;752482;186;861474;-71
2023/03/17 07:03:56;;;;;;;29.93;16.50;;;;;;;;;;751074;186;626038;-64
2023/03/17 07:06:22;;;;;;;33.60;19.87;;;;;;;;;;750052;187;637059;-70
2023/03/17 07:08:49;;;;;;;38.73;22.63;;;;;;;;;;750472;187;629622;-69
2023/03/17 07:11:14;;;;;;;28.37;19.37;;;;;;;;;;754286;187;642912;-64
2023/03/17 07:13:40;;;;;;;22.53;14.00;;;;;;;;;;751651;186;638309;-70
2023/03/17 07:16:06;;;;;;;25.20;11.47;;;;;;;;;;741476;186;623630;-69
2023/03/17 07:18:32;;;;;;;14.33;8.10;;;;;;;;;;749550;187;624283;-64
2023/03/17 07:20:57;;;;;;;12.13;6.77;;;;;;;;;;755991;183;632451;-64
2023/03/17 07:23:23;;;;;;;12.93;6.53;;;;;;;;;;745638;186;632387;-69
2023/03/17 07:25:49;;;;;;;13.17;3.40;;;;;;;;;;751062;186;632472;-69
2023/03/17 07:28:15;;;;;;;4.93;3.53;;;;;;;;;;754937;187;614949;-64
2023/03/17 07:30:45;;;;;;;5.63;3.60;;;;;;;;;;749606;187;633270;-64
2023/03/17 07:33:07;;;;;;;7.93;4.67;;;;;;;;;;750978;186;630948;-67
2023/03/17 07:35:33;;;;;;;8.30;4.47;;;;;;;;;;755229;187;629481;-65
2023/03/17 07:37:59;;;;;;;9.03;4.03;;;;;;;;;;753995;187;635093;-67
2023/03/17 07:40:25;;;;;;;7.90;3.70;;;;;;;;;;750864;186;625005;-66
2023/03/17 07:42:50;;;;;;;7.60;3.70;;;;;;;;;;757109;184;612727;-69
2023/03/17 07:45:16;;;;;;;8.10;3.20;;;;;;;;;;749008;186;621062;-67
2023/03/17 07:47:42;;;;;;;6.00;2.80;;;;;;;;;;752459;186;680049;-64
2023/03/17 07:50:08;;;;;;;6.13;3.63;;;;;;;;;;753330;186;653502;-64
2023/03/17 07:52:34;;;;;;;7.27;3.53;;;;;;;;;;751634;187;621896;-63
2023/03/17 07:55:00;;;;;;;13.10;5.03;;;;;;;;;;751011;187;639370;-67
2023/03/17 07:57:26;;;;;;;7.57;3.43;;;;;;;;;;750416;187;628807;-67
2023/03/17 07:59:51;;;;;;;9.77;3.13;;;;;;;;;;756674;186;626123;-64
2023/03/17 08:02:18;;;;;;;5.67;3.20;;;;;;;;;;754004;187;636425;-64
2023/03/17 08:04:43;;;;;;;7.50;3.47;;;;;;;;;;753978;186;613671;-64
2023/03/17 08:07:09;;;;;;;5.90;3.90;;;;;;;;;;755888;187;622455;-63
2023/03/17 08:09:36;;;;;;;6.33;3.73;;;;;;;;;;752722;186;631567;-63
2023/03/17 08:12:02;;;;;;;7.00;3.70;;;;;;;;;;753824;186;627952;-68
2023/03/17 08:14:27;;;;;;;6.30;3.43;;;;;;;;;;750331;186;630214;-64
2023/03/17 08:16:53;;;;;;;5.03;3.27;;;;;;;;;;753069;187;625222;-64
2023/03/17 08:19:18;;;;;;;5.73;3.33;;;;;;;;;;749983;186;627385;-64
2023/03/17 08:27:30;;;;;;;5.40;2.90;;;;;;;;;;728759;178;28085;-81
2023/03/17 08:32:48;;;;;;;10.23;3.77;;;;;;;;;;749699;183;1639045;-80
2023/03/17 08:35:14;;;;;;;7.37;3.63;;;;;;;;;;752903;184;625695;-79
2023/03/17 08:37:40;;;;;;;8.00;3.80;;;;;;;;;;760544;184;614148;-80
2023/03/17 08:40:08;;;;;;;8.70;3.20;;;;;;;;;;759066;184;624673;-79
2023/03/17 08:42:32;;;;;;;7.83;3.50;;;;;;;;;;756379;184;629459;-79
2023/03/17 08:44:58;;;;;;;8.90;3.80;;;;;;;;;;764575;184;654472;-79
2023/03/17 08:47:23;;;;;;;6.83;3.60;;;;;;;;;;759316;184;927643;-79
2023/03/17 08:49:49;;;;;;;8.33;3.57;;;;;;;;;;762608;183;818836;-78
2023/03/17 08:52:16;;;;;;;9.90;3.90;;;;;;;;;;763000;184;700951;-80
2023/03/17 08:54:42;;;;;;;5.57;3.07;;;;;;;;;;761445;180;669091;-80
2023/03/17 08:57:07;;;;;;;5.07;3.80;;;;;;;;;;766379;183;624377;-79
2023/03/17 08:59:33;;;;;;;6.37;3.60;;;;;;;;;;757686;184;646694;-78
2023/03/17 09:01:59;;;;;;;9.10;3.80;;;;;;;;;;769367;183;781403;-79
2023/03/17 09:04:25;;;;;;;5.00;3.00;;;;;;;;;;764198;184;677209;-80
2023/03/17 09:06:53;;;;;;;7.80;4.10;;;;;;;;;;761395;184;624047;-80
2023/03/17 09:09:18;;;;;;;8.07;3.20;;;;;;;;;;764469;183;666045;-79
2023/03/17 09:11:44;;;;;;;6.80;3.40;;;;;;;;;;763665;183;710493;-79
2023/03/17 09:14:10;;;;;;;6.00;3.57;;;;;;;;;;761239;184;627817;-78
2023/03/17 09:16:36;;;;;;;5.07;3.00;;;;;;;;;;764055;184;633557;-80
2023/03/17 09:19:02;;;;;;;7.20;3.60;;;;;;;;;;757156;184;638495;-78
2023/03/17 09:21:27;;;;;;;6.27;2.90;;;;;;;;;;758170;183;633253;-79
2023/03/17 09:23:53;;;;;;;9.90;4.23;;;;;;;;;;759197;184;711386;-79
2023/03/17 09:26:19;;;;;;;6.57;3.63;;;;;;;;;;765551;184;637472;-79
2023/03/17 09:28:45;;;;;;;6.80;4.20;;;;;;;;;;763073;184;716808;-80
2023/03/17 09:31:11;;;;;;;8.40;4.87;;;;;;;;;;761855;184;628897;-78
2023/03/17 09:33:37;;;;;;;6.87;4.07;;;;;;;;;;765859;184;625038;-80
2023/03/17 09:36:03;;;;;;;6.30;3.67;;;;;;;;;;761209;184;652008;-78
2023/03/17 09:38:30;;;;;;;10.30;3.60;;;;;;;;;;757611;184;651061;-79
2023/03/17 09:41:18;;;;;;;6.00;3.67;;;;;;;;;;758097;184;674389;-80
2023/03/17 09:43:54;;;;;;;8.93;3.93;;;;;;;;;;755338;184;654976;-80
2023/03/17 09:46:38;;;;;;;7.87;4.62;;;;;;;;;;757215;184;679524;-80
2023/03/17 09:49:06;;;;;;;8.37;4.27;;;;;;;;;;759646;180;644253;-79
2023/03/17 09:51:32;;;;;;;8.10;3.60;;;;;;;;;;765706;180;655491;-78
2023/03/17 09:53:59;;;;;;;7.27;3.13;;;;;;;;;;762539;184;645917;-80
2023/03/17 09:56:25;;;;;;;6.37;3.07;;;;;;;;;;752733;184;1931616;-79
2023/03/17 09:58:51;;;;;;;6.33;3.73;;;;;;;;;;763811;184;649282;-78
2023/03/17 10:01:17;;;;;;;4.40;3.30;;;;;;;;;;758333;184;753226;-79
2023/03/17 10:03:43;;;;;;;4.47;3.20;;;;;;;;;;759721;184;621386;-78
2023/03/17 10:06:09;;;;;;;7.87;4.23;;;;;;;;;;768853;182;628074;-78
2023/03/17 10:08:36;;;;;;;7.60;4.50;;;;;;;;;;766618;183;629925;-78
2023/03/17 10:11:17;;;;;;;7.60;3.30;;;;;;;;;;763964;183;631661;-79
2023/03/17 10:13:48;;;;;;;7.10;3.93;;;;;;;;;;763095;183;637224;-78
2023/03/17 10:16:16;;;;;;;6.93;3.40;;;;;;;;;;763742;182;650235;-79
2023/03/17 10:18:42;;;;;;;7.63;3.87;;;;;;;;;;766065;184;623597;-80
2023/03/17 10:21:07;;;;;;;6.40;3.87;;;;;;;;;;763559;184;774993;-79
2023/03/17 10:23:33;;;;;;;7.73;3.83;;;;;;;;;;763169;180;627146;-79
2023/03/17 10:25:59;;;;;;;6.35;3.65;;;;;;;;;;762751;184;765271;-79
2023/03/17 10:28:25;;;;;;;8.43;4.50;;;;;;;;;;767539;180;764732;-79
2023/03/17 10:30:51;;;;;;;7.10;3.80;;;;;;;;;;764670;183;625960;-79
2023/03/17 10:33:17;;;;;;;10.33;4.53;;;;;;;;;;760761;183;643725;-78
2023/03/17 10:35:43;;;;;;;5.13;3.30;;;;;;;;;;764647;184;624972;-79
2023/03/17 10:38:15;;;;;;;7.97;3.53;;;;;;;;;;764936;184;634511;-80
2023/03/17 10:40:40;;;;;;;6.40;3.83;;;;;;;;;;763248;180;623611;-80
2023/03/17 10:43:07;;;;;;;10.55;4.50;;;;;;;;;;767152;184;645599;-79
2023/03/17 10:45:32;;;;;;;6.90;3.97;;;;;;;;;;758402;184;626507;-79
2023/03/17 10:47:58;;;;;;;7.80;4.57;;;;;;;;;;756956;184;1155495;-78
2023/03/17 10:50:25;;;;;;;5.23;3.83;;;;;;;;;;760526;184;755270;-79
2023/03/17 10:52:51;;;;;;;7.20;3.40;;;;;;;;;;761810;184;614078;-77
2023/03/17 10:55:17;;;;;;;6.87;3.80;;;;;;;;;;760802;184;826361;-79
2023/03/17 10:57:48;;;;;;;5.33;3.40;;;;;;;;;;762471;184;644372;-78
2023/03/17 11:00:14;;;;;;;5.70;3.40;;;;;;;;;;759941;184;656664;-79
2023/03/17 11:02:43;;;;;;;6.43;3.60;;;;;;;;;;761490;184;640492;-78
2023/03/17 11:05:14;;;;;;;8.20;3.60;;;;;;;;;;762653;183;626462;-78
2023/03/17 11:07:40;;;;;;;6.17;3.73;;;;;;;;;;764700;184;629700;-77
2023/03/17 11:10:16;;;;;;;7.90;4.10;;;;;;;;;;760369;184;802495;-78
2023/03/17 11:12:42;;;;;;;10.73;6.13;;;;;;;;;;764024;184;619248;-78
2023/03/17 11:15:09;;;;;;;6.23;3.83;;;;;;;;;;759648;184;667043;-77
2023/03/17 11:17:51;;;;;;;7.27;4.00;;;;;;;;;;763065;183;656459;-78
2023/03/17 11:20:20;;;;;;;6.67;3.63;;;;;;;;;;761833;183;622263;-78
2023/03/17 11:22:47;;;;;;;5.60;3.70;;;;;;;;;;760649;184;638287;-78
2023/03/17 11:25:15;;;;;;;7.67;3.47;;;;;;;;;;768754;181;626933;-78
2023/03/17 11:27:51;;;;;;;7.77;4.17;;;;;;;;;;763570;184;757168;-80
2023/03/17 11:30:31;;;;;;;5.30;3.43;;;;;;;;;;758396;182;646939;-79
2023/03/17 11:33:12;;;;;;;9.67;3.40;;;;;;;;;;763602;184;634442;-78
2023/03/17 11:35:38;;;;;;;5.80;3.90;;;;;;;;;;759382;182;639497;-78
2023/03/17 11:38:23;;;;;;;9.27;3.73;;;;;;;;;;767649;182;633290;-78
2023/03/17 11:40:51;;;;;;;5.00;3.37;;;;;;;;;;754701;184;630708;-80
2023/03/17 11:43:23;;;;;;;6.67;2.93;;;;;;;;;;766957;184;975651;-81
2023/03/17 11:45:49;;;;;;;9.53;3.23;;;;;;;;;;754374;184;651168;-78
2023/03/17 11:48:26;;;;;;;6.87;3.33;;;;;;;;;;754950;183;653350;-78
2023/03/17 11:51:01;;;;;;;6.80;2.83;;;;;;;;;;760494;184;624436;-78
2023/03/17 11:53:33;;;;;;;7.23;3.80;;;;;;;;;;759207;184;633504;-81
2023/03/17 11:55:59;;;;;;;8.37;4.40;;;;;;;;;;763522;185;637386;-79
2023/03/17 11:58:25;;;;;;;4.67;3.00;;;;;;;;;;755864;184;664572;-78
2023/03/17 12:00:51;;;;;;;4.97;3.33;;;;;;;;;;758163;184;639337;-78
2023/03/17 12:03:23;;;;;;;7.70;3.70;;;;;;;;;;764322;184;621761;-78
2023/03/17 12:05:49;;;;;;;16.80;4.90;;;;;;;;;;767843;181;633041;-78
2023/03/17 12:08:19;;;;;;;12.30;5.20;;;;;;;;;;763040;184;658817;-78
2023/03/17 12:10:45;;;;;;;9.10;4.73;;;;;;;;;;758182;184;828973;-80
2023/03/17 12:13:11;;;;;;;7.97;4.80;;;;;;;;;;767666;184;785323;-79
2023/03/17 12:15:38;;;;;;;10.00;4.10;;;;;;;;;;765699;184;630997;-78
2023/03/17 12:18:04;;;;;;;10.80;4.97;;;;;;;;;;761620;184;629212;-79
2023/03/17 12:20:41;;;;;;;10.80;4.60;;;;;;;;;;765475;184;627744;-79
2023/03/17 12:23:13;;;;;;;10.37;4.90;;;;;;;;;;765447;184;618641;-79
2023/03/17 12:25:41;;;;;;;10.20;4.40;;;;;;;;;;765767;184;649524;-78
2023/03/17 12:28:11;;;;;;;7.87;4.03;;;;;;;;;;760984;183;632510;-78
2023/03/17 12:30:39;;;;;;;7.97;3.70;;;;;;;;;;766231;183;851734;-77
2023/03/17 12:33:15;;;;;;;6.90;3.77;;;;;;;;;;765049;183;1074367;-78
2023/03/17 12:35:42;;;;;;;8.83;5.30;;;;;;;;;;766063;180;626540;-78
2023/03/17 12:38:22;;;;;;;6.53;3.87;;;;;;;;;;757765;183;629826;-80
2023/03/17 12:40:54;;;;;;;6.37;3.50;;;;;;;;;;762738;183;661174;-79
2023/03/17 12:43:25;;;;;;;6.27;3.40;;;;;;;;;;755950;183;637926;-79
2023/03/17 12:45:57;;;;;;;6.90;4.60;;;;;;;;;;761962;183;731653;-78
2023/03/17 12:48:27;;;;;;;7.60;4.30;;;;;;;;;;762881;184;629419;-78
2023/03/17 12:51:08;;;;;;;6.90;3.03;;;;;;;;;;757290;184;694331;-79
2023/03/17 12:53:35;;;;;;;7.33;3.47;;;;;;;;;;765682;182;629756;-80
2023/03/17 12:56:02;;;;;;;10.00;3.83;;;;;;;;;;760056;184;625690;-79
2023/03/17 12:58:28;;;;;;;10.57;5.17;;;;;;;;;;762036;184;637767;-79
2023/03/17 13:00:54;;;;;;;7.93;4.13;;;;;;;;;;765449;184;628946;-79
2023/03/17 13:03:22;;;;;;;6.00;3.70;;;;;;;;;;763151;184;639314;-80
2023/03/17 13:05:47;;;;;;;5.77;2.97;;;;;;;;;;762883;184;661958;-80
2023/03/17 13:08:14;;;;;;;8.67;3.67;;;;;;;;;;759761;181;649322;-81
2023/03/17 13:10:39;;;;;;;6.20;4.30;;;;;;;;;;750421;187;625688;-79
2023/03/17 13:13:06;;;;;;;6.23;3.10;;;;;;;;;;763449;184;690054;-78
2023/03/17 13:15:48;;;;;;;7.63;3.53;;;;;;;;;;756909;183;629734;-80
2023/03/17 13:18:22;;;;;;;5.93;3.13;;;;;;;;;;762920;184;622656;-79
2023/03/17 13:20:50;;;;;;;7.03;4.10;;;;;;;;;;768097;184;626749;-78
2023/03/17 13:23:16;;;;;;;7.13;3.90;;;;;;;;;;752920;184;702386;-78
2023/03/17 13:25:52;;;;;;;7.03;3.97;;;;;;;;;;760908;184;706789;-79
2023/03/17 13:28:16;;;;;;;6.23;3.73;;;;;;;;;;758769;184;632838;-80
2023/03/17 13:30:42;;;;;;;7.77;4.60;;;;;;;;;;763013;184;626748;-80
2023/03/17 13:33:22;;;;;;;5.93;3.70;;;;;;;;;;763583;183;639903;-79
2023/03/17 13:36:05;;;;;;;7.10;4.20;;;;;;;;;;758551;184;625261;-79
2023/03/17 13:38:37;;;;;;;8.20;3.90;;;;;;;;;;763783;184;634288;-80
2023/03/17 13:41:20;;;;;;;10.07;4.30;;;;;;;;;;763443;182;628712;-78
2023/03/17 13:43:51;;;;;;;5.47;3.17;;;;;;;;;;758758;183;647689;-80
2023/03/17 13:46:20;;;;;;;8.90;4.53;;;;;;;;;;762313;183;667641;-78
2023/03/17 13:48:45;;;;;;;5.00;3.00;;;;;;;;;;764957;183;638779;-78
2023/03/17 13:51:26;;;;;;;7.13;4.07;;;;;;;;;;759072;184;619365;-78
2023/03/17 13:53:52;;;;;;;6.80;3.90;;;;;;;;;;762279;184;650261;-78
2023/03/17 13:56:21;;;;;;;5.73;3.70;;;;;;;;;;760134;184;628693;-79
2023/03/17 13:58:48;;;;;;;6.50;4.17;;;;;;;;;;764953;183;632148;-78
2023/03/17 14:01:13;;;;;;;6.73;3.43;;;;;;;;;;763551;184;634181;-79
2023/03/17 14:03:40;;;;;;;5.50;3.73;;;;;;;;;;757824;184;632447;-79
2023/03/17 14:06:06;;;;;;;7.77;3.63;;;;;;;;;;763423;182;679130;-77
2023/03/17 14:08:32;;;;;;;5.63;3.77;;;;;;;;;;764138;183;651757;-81
2023/03/17 14:10:59;;;;;;;6.23;3.57;;;;;;;;;;764784;184;630156;-78
2023/03/17 14:13:25;;;;;;;7.13;3.30;;;;;;;;;;762526;184;711653;-78
2023/03/17 14:16:02;;;;;;;8.87;3.57;;;;;;;;;;760216;184;657491;-80
2023/03/17 14:18:29;;;;;;;6.13;4.00;;;;;;;;;;760853;180;618286;-79
2023/03/17 14:20:55;;;;;;;8.00;5.50;;;;;;;;;;763642;183;677235;-78
2023/03/17 14:23:21;;;;;;;7.90;3.83;;;;;;;;;;762188;182;645325;-80